Grant Valley, Minnesota
Current Conditions -  °F | °C
As of 2:13 PM on Sunday 25 Jan 2015 (Local Time) from KBJI Reporting Station
Broken Clouds Broken Clouds  
Wind Chill: 18°   Ceiling: 8500
Heat Index: 27°   Visibility: 10mi
Dew Point: 17°   Wind: 9mph
Humidity: 66%   Direction: 210°SSW
Pressure: 29.97"   Gusts: NA
Location:  47.5271°N, 94.7611°W
Report Text: KBJI 252013Z AUTO 21008KT 130V230 10SM SCT025 SCT055 BKN085 M03/M08 A2997 RMK AO2 T10281083
Loading
Personal Weather Stations






























Interactive Weather Map New forecast layout! Learn more

10-Day Weather Forecast

Advertisements
Track Severe Weather on mobile